Time;durP1;ratioP1;P1;durP2;ratioP2;P2;SDS_P1;SDS_P2;PMS_P1;PMS_P2;Temp;Humidity;BMP_temperature;BMP_pressure;BME280_temperature;BME280_humidity;BME280_pressure;Samples;Min_cycle;Max_cycle;Signal;HPM_P1;HPM_P2
2022/03/22 00:00:55;;;;;;;;;;;;;;;;;;5033667;28;19929;-52
2022/03/22 00:03:24;;;;;;;;;;;;;;;;;;5033621;28;19925;-53
2022/03/22 00:05:52;;;;;;;;;;;;;;;;;;5033364;28;19929;-54
2022/03/22 00:08:21;;;;;;;;;;;;;;;;;;5033482;28;19925;-55
2022/03/22 00:10:50;;;;;;;;;;;;;;;;;;5033555;28;19929;-54
2022/03/22 00:13:19;;;;;;;;;;;;;;;;;;5033531;28;19971;-54
2022/03/22 00:15:48;;;;;;;;;;;;;;;;;;5033305;28;19929;-53
2022/03/22 00:18:15;;;;;;;;;;;;;;;;;;5033364;28;19986;-53
2022/03/22 00:20:42;;;;;;;;;;;7.40;99.90;;;;;;5034062;28;19925;-53
2022/03/22 00:23:07;;;;;;;;;;;7.50;99.90;;;;;;5037125;28;20015;-53
2022/03/22 00:25:33;;;;;;;;;;;7.40;99.90;;;;;;5037362;28;19968;-53
2022/03/22 00:27:58;;;;;;;;;;;7.50;99.90;;;;;;5037209;28;19929;-54
2022/03/22 00:30:26;;;;;;;;;;;7.40;99.90;;;;;;5037176;28;19925;-54
2022/03/22 00:32:53;;;;;;;;;;;7.30;99.90;;;;;;5036998;28;20342;-54
2022/03/22 00:35:20;;;;;;;;;;;7.30;99.90;;;;;;5037181;28;19931;-53
2022/03/22 00:37:46;;;;;;;;;;;7.30;99.90;;;;;;5037072;28;20399;-54
2022/03/22 00:40:18;;;;;;;;;;;7.30;99.90;;;;;;5037122;28;19926;-50
2022/03/22 00:42:47;;;;;;;;;;;7.30;99.90;;;;;;5037119;28;19925;-51
2022/03/22 00:45:15;;;;;;;;;;;7.40;99.90;;;;;;5036914;28;19925;-53
2022/03/22 00:47:48;;;;;;;;;;;7.20;99.90;;;;;;5036873;28;20414;-53
2022/03/22 00:50:15;;;;;;;;;;;7.40;99.90;;;;;;5037160;28;19972;-49
2022/03/22 00:52:42;;;;;;;;;;;;;;;;;;5036788;28;20273;-52
2022/03/22 00:55:10;;;;;;;;;;;;;;;;;;5036917;28;20354;-51
2022/03/22 00:57:38;;;;;;;;;;;;;;;;;;5036666;28;19979;-53
2022/03/22 01:00:05;;;;;;;;;;;;;;;;;;5036626;28;20028;-51
2022/03/22 01:02:34;;;;;;;;;;;;;;;;;;5036582;28;19925;-55
2022/03/22 01:05:00;;;;;;;;;;;;;;;;;;5036088;28;19935;-52
2022/03/22 01:07:26;;;;;;;;;;;7.00;99.90;;;;;;5035064;28;19951;-51
2022/03/22 01:09:51;;;;;;;;;;;7.10;99.90;;;;;;5036268;28;19925;-53
2022/03/22 01:12:16;;;;;;;;;;;6.90;99.90;;;;;;5035979;28;19932;-50
2022/03/22 01:14:42;;;;;;;;;;;7.00;99.90;;;;;;5036026;28;19925;-53
2022/03/22 01:17:08;;;;;;;;;;;7.00;99.90;;;;;;5036056;28;19933;-53
2022/03/22 01:19:34;;;;;;;;;;;6.90;99.90;;;;;;5034785;28;20465;-52
2022/03/22 01:22:00;;;;;;;;;;;6.90;99.90;;;;;;5036057;28;19926;-52
2022/03/22 01:24:26;;;;;;;;;;;7.00;99.90;;;;;;5036022;28;19950;-51
2022/03/22 01:26:52;;;;;;;;;;;6.90;99.90;;;;;;5035688;28;20445;-54
2022/03/22 01:29:17;;;;;;;;;;;6.80;99.90;;;;;;5034575;28;19925;-54
2022/03/22 01:31:44;;;;;;;;;;;6.70;99.90;;;;;;5035559;28;19924;-53
2022/03/22 01:34:11;;;;;;;;;;;;;;;;;;5034698;28;20042;-54
2022/03/22 01:36:36;;;;;;;;;;;6.80;99.90;;;;;;5035501;28;20391;-53
2022/03/22 01:39:02;;;;;;;;;;;6.70;99.90;;;;;;5035459;28;19980;-53
2022/03/22 01:41:28;;;;;;;;;;;6.70;99.90;;;;;;5035641;28;19925;-53
2022/03/22 01:43:53;;;;;;;;;;;6.70;99.90;;;;;;5035354;28;19925;-54
2022/03/22 01:46:24;;;;;;;;;;;6.80;99.90;;;;;;5035861;28;20027;-53
2022/03/22 01:48:50;;;;;;;;;;;6.70;99.90;;;;;;5035604;28;19921;-54
2022/03/22 01:51:16;;;;;;;;;;;;;;;;;;5034787;28;20394;-54
2022/03/22 01:53:42;;;;;;;;;;;6.60;99.90;;;;;;5035565;28;19927;-51
2022/03/22 01:56:08;;;;;;;;;;;6.50;99.90;;;;;;5035482;28;20019;-54
2022/03/22 01:58:33;;;;;;;;;;;6.50;99.90;;;;;;5033888;28;20004;-51
2022/03/22 02:06:31;;;;;;;;;;;;;;;;;;5035149;28;19925;-51
2022/03/22 02:08:58;;;;;;;;;;;;;;;;;;5035096;28;19925;-54
2022/03/22 02:11:27;;;;;;;;;;;;;;;;;;5035044;28;20007;-53
2022/03/22 02:13:52;;;;;;;;;;;6.10;99.90;;;;;;5034987;28;20342;-53
2022/03/22 02:16:19;;;;;;;;;;;;;;;;;;5035184;28;19925;-49
2022/03/22 02:18:46;;;;;;;;;;;;;;;;;;5034895;28;19971;-52
2022/03/22 02:21:14;;;;;;;;;;;6.10;99.90;;;;;;5033778;28;19974;-53
2022/03/22 02:23:46;;;;;;;;;;;6.30;99.90;;;;;;5034938;28;20375;-50
2022/03/22 02:26:12;;;;;;;;;;;;;;;;;;5035116;28;19932;-53
2022/03/22 02:28:41;;;;;;;;;;;;;;;;;;5035024;28;19925;-53
2022/03/22 02:31:08;;;;;;;;;;;;;;;;;;5035007;28;20307;-52
2022/03/22 02:33:35;;;;;;;;;;;;;;;;;;5034796;28;19929;-51
2022/03/22 02:36:01;;;;;;;;;;;;;;;;;;5035220;28;19925;-51
2022/03/22 02:38:27;;;;;;;;;;;;;;;;;;5034627;28;19925;-52
2022/03/22 02:40:54;;;;;;;;;;;;;;;;;;5034822;28;20338;-53
2022/03/22 02:43:20;;;;;;;;;;;;;;;;;;5034979;28;19926;-52
2022/03/22 02:45:45;;;;;;;;;;;6.20;99.90;;;;;;5034206;28;19925;-54
2022/03/22 02:48:11;;;;;;;;;;;6.00;99.90;;;;;;5034466;28;20445;-53
2022/03/22 02:50:37;;;;;;;;;;;6.00;99.90;;;;;;5070261;22;19952;-48
2022/03/22 02:53:03;;;;;;;;;;;;;;;;;;5025091;28;19925;-47
2022/03/22 02:55:29;;;;;;;;;;;;;;;;;;5024293;28;19926;-48
2022/03/22 02:57:56;;;;;;;;;;;;;;;;;;5014262;28;19932;-48
2022/03/22 03:00:23;;;;;;;;;;;6.20;99.90;;;;;;5028790;28;20338;-49
2022/03/22 03:02:50;;;;;;;;;;;6.30;99.90;;;;;;5033822;28;20366;-52
2022/03/22 03:05:16;;;;;;;;;;;;;;;;;;5033867;28;20008;-48
2022/03/22 03:07:42;;;;;;;;;;;6.20;99.90;;;;;;5028515;28;19980;-49
2022/03/22 03:10:08;;;;;;;;;;;6.20;99.90;;;;;;5014255;28;19930;-50
2022/03/22 03:12:34;;;;;;;;;;;6.20;99.90;;;;;;5014049;28;19979;-48
2022/03/22 03:15:00;;;;;;;;;;;6.30;99.90;;;;;;5014037;28;19925;-51
2022/03/22 03:17:26;;;;;;;;;;;;;;;;;;5014055;28;20299;-51
2022/03/22 03:19:52;;;;;;;;;;;;;;;;;;5013756;28;20075;-48
2022/03/22 03:22:18;;;;;;;;;;;6.00;99.90;;;;;;5013714;28;19926;-47
2022/03/22 03:24:43;;;;;;;;;;;6.10;99.90;;;;;;5018631;28;20379;-48
2022/03/22 03:27:09;;;;;;;;;;;6.00;99.90;;;;;;5033621;28;19925;-48
2022/03/22 03:29:34;;;;;;;;;;;6.20;99.90;;;;;;5033574;28;19925;-52
2022/03/22 03:32:00;;;;;;;;;;;5.70;99.90;;;;;;5033477;28;20012;-50
2022/03/22 03:34:25;;;;;;;;;;;6.10;99.90;;;;;;5033523;28;19925;-49
2022/03/22 03:36:51;;;;;;;;;;;6.10;99.90;;;;;;5033178;28;19925;-47
2022/03/22 03:39:16;;;;;;;;;;;5.80;99.90;;;;;;5033460;28;19925;-48
2022/03/22 03:41:53;;;;;;;;;;;5.80;99.90;;;;;;5033332;28;19952;-49
2022/03/22 03:47:04;;;;;;;;;;;5.80;99.90;;;;;;5033294;28;19925;-48
2022/03/22 03:49:31;;;;;;;;;;;5.70;99.90;;;;;;5033541;28;20252;-48
2022/03/22 03:51:57;;;;;;;;;;;5.90;99.90;;;;;;5033335;28;19925;-49
2022/03/22 03:54:22;;;;;;;;;;;5.90;99.90;;;;;;5033197;28;19952;-48
2022/03/22 03:56:48;;;;;;;;;;;5.90;99.90;;;;;;5035473;28;19925;-48
2022/03/22 03:59:14;;;;;;;;;;;5.70;99.90;;;;;;5029574;28;20392;-48
2022/03/22 04:01:39;;;;;;;;;;;5.80;99.90;;;;;;5017535;28;19948;-49
2022/03/22 04:04:05;;;;;;;;;;;5.80;99.90;;;;;;5017592;28;20446;-51
2022/03/22 04:06:31;;;;;;;;;;;5.70;99.90;;;;;;5017526;28;19932;-49
2022/03/22 04:08:56;;;;;;;;;;;5.70;99.90;;;;;;5017407;28;19925;-49
2022/03/22 04:11:22;;;;;;;;;;;5.90;99.90;;;;;;5017346;28;20532;-49
2022/03/22 04:13:48;;;;;;;;;;;5.70;99.90;;;;;;5017204;28;19964;-50
2022/03/22 04:16:13;;;;;;;;;;;5.70;99.90;;;;;;5000021;28;19967;-48
2022/03/22 04:18:39;;;;;;;;;;;5.70;99.90;;;;;;5017315;28;19933;-47
2022/03/22 04:21:04;;;;;;;;;;;5.40;99.90;;;;;;5017029;28;20399;-49
2022/03/22 04:23:30;;;;;;;;;;;5.70;99.90;;;;;;5017150;28;19926;-49
2022/03/22 04:25:56;;;;;;;;;;;5.70;99.90;;;;;;5017127;28;19988;-52
2022/03/22 04:33:51;;;;;;;;;;;5.60;99.90;;;;;;5017136;28;19956;-49
2022/03/22 04:36:17;;;;;;;;;;;5.50;99.90;;;;;;5017062;28;19933;-47
2022/03/22 04:38:43;;;;;;;;;;;5.50;99.90;;;;;;5016832;28;20417;-50
2022/03/22 04:41:08;;;;;;;;;;;5.60;99.90;;;;;;5016671;28;19926;-50
2022/03/22 04:43:34;;;;;;;;;;;5.10;99.90;;;;;;5016882;28;20528;-49
2022/03/22 04:46:01;;;;;;;;;;;;;;;;;;5016816;28;19926;-50
2022/03/22 04:48:27;;;;;;;;;;;5.40;99.90;;;;;;5016770;28;19925;-50
2022/03/22 04:56:43;;;;;;;;;;;5.30;99.90;;;;;;5016447;28;20364;-51
2022/03/22 04:59:06;;;;;;;;;;;5.40;99.90;;;;;;5016624;28;19932;-49
2022/03/22 05:01:32;;;;;;;;;;;5.30;99.90;;;;;;5016572;28;19925;-51
2022/03/22 05:03:57;;;;;;;;;;;5.30;99.90;;;;;;5016535;28;19932;-52
2022/03/22 05:06:25;;;;;;;;;;;5.30;99.90;;;;;;5016325;28;19926;-50
2022/03/22 05:08:54;;;;;;;;;;;5.20;99.90;;;;;;5016375;28;20342;-48
2022/03/22 05:11:19;;;;;;;;;;;5.00;99.90;;;;;;5016355;28;20280;-50
2022/03/22 05:13:44;;;;;;;;;;;5.40;99.90;;;;;;5016235;28;19940;-49
2022/03/22 05:16:10;;;;;;;;;;;5.20;99.90;;;;;;5016321;28;19926;-52
2022/03/22 05:18:36;;;;;;;;;;;5.40;99.90;;;;;;5016081;28;19948;-48
2022/03/22 05:21:04;;;;;;;;;;;5.30;99.90;;;;;;5015880;28;20019;-49
2022/03/22 05:23:32;;;;;;;;;;;5.30;99.90;;;;;;5016122;28;19979;-48
2022/03/22 05:25:58;;;;;;;;;;;5.20;99.90;;;;;;5016147;28;20356;-47
2022/03/22 05:28:23;;;;;;;;;;;5.20;99.90;;;;;;5016023;28;19961;-49
2022/03/22 05:30:49;;;;;;;;;;;5.10;99.90;;;;;;5016006;28;20335;-50
2022/03/22 05:33:14;;;;;;;;;;;5.00;99.90;;;;;;5015746;28;19926;-47
2022/03/22 05:35:40;;;;;;;;;;;5.00;99.90;;;;;;5015938;28;19926;-48
2022/03/22 05:38:05;;;;;;;;;;;5.30;99.90;;;;;;5015865;28;19926;-49
2022/03/22 05:40:31;;;;;;;;;;;5.30;99.90;;;;;;5016102;28;19932;-50
2022/03/22 05:42:56;;;;;;;;;;;5.20;99.90;;;;;;5016056;28;20268;-47
2022/03/22 05:45:23;;;;;;;;;;;5.50;99.90;;;;;;5015566;28;20291;-48
2022/03/22 05:47:49;;;;;;;;;;;5.50;99.90;;;;;;5015487;28;20291;-48
2022/03/22 05:50:15;;;;;;;;;;;5.40;99.90;;;;;;5015034;28;19925;-50
2022/03/22 05:52:41;;;;;;;;;;;5.40;99.90;;;;;;5015567;28;19972;-49
2022/03/22 05:55:07;;;;;;;;;;;5.40;99.90;;;;;;5015374;28;20380;-48
2022/03/22 05:57:32;;;;;;;;;;;5.40;99.90;;;;;;5015312;28;19936;-47
2022/03/22 05:59:58;;;;;;;;;;;5.50;99.90;;;;;;5015337;28;19932;-47
2022/03/22 06:02:23;;;;;;;;;;;5.60;99.90;;;;;;5015323;28;19926;-48
2022/03/22 06:04:49;;;;;;;;;;;5.60;99.90;;;;;;5015435;28;19983;-48
2022/03/22 06:07:14;;;;;;;;;;;5.70;99.90;;;;;;5015254;28;20430;-49
2022/03/22 06:09:41;;;;;;;;;;;5.80;99.90;;;;;;5015104;28;19925;-49
2022/03/22 06:12:07;;;;;;;;;;;5.90;99.90;;;;;;5015197;28;19972;-48
2022/03/22 06:14:32;;;;;;;;;;;6.00;99.90;;;;;;5015072;28;19925;-47
2022/03/22 06:16:57;;;;;;;;;;;6.00;99.90;;;;;;5015087;28;19929;-47
2022/03/22 06:19:23;;;;;;;;;;;6.10;99.90;;;;;;5014219;28;20430;-49
2022/03/22 06:21:49;;;;;;;;;;;6.20;99.90;;;;;;5015078;28;19933;-49
2022/03/22 06:24:14;;;;;;;;;;;6.30;99.90;;;;;;5014973;28;19925;-47
2022/03/22 06:26:40;;;;;;;;;;;6.40;99.90;;;;;;5014846;28;19926;-48
2022/03/22 06:29:05;;;;;;;;;;;6.60;99.90;;;;;;5014751;28;19925;-47
2022/03/22 06:31:35;;;;;;;;;;;6.70;99.90;;;;;;5014743;28;19926;-49
2022/03/22 06:34:01;;;;;;;;;;;7.10;99.90;;;;;;5014947;28;19983;-48
2022/03/22 06:36:27;;;;;;;;;;;7.30;99.90;;;;;;5014732;28;19936;-48
2022/03/22 06:38:53;;;;;;;;;;;7.50;99.90;;;;;;5014616;28;20379;-49
2022/03/22 06:41:18;;;;;;;;;;;7.80;99.90;;;;;;5014701;28;20004;-47
2022/03/22 06:43:44;;;;;;;;;;;8.10;99.90;;;;;;5014463;28;19932;-49
2022/03/22 06:46:10;;;;;;;;;;;8.50;99.90;;;;;;5014417;28;19988;-49
2022/03/22 06:48:36;;;;;;;;;;;8.70;99.90;;;;;;5014584;28;19980;-47
2022/03/22 06:51:01;;;;;;;;;;;9.10;99.90;;;;;;5014163;28;19929;-47
2022/03/22 06:53:27;;;;;;;;;;;9.30;99.90;;;;;;5014426;28;19960;-49
2022/03/22 06:55:52;;;;;;;;;;;9.40;99.90;;;;;;5014462;28;20091;-48
2022/03/22 06:58:22;;;;;;;;;;;9.80;99.90;;;;;;5014231;28;19933;-50
2022/03/22 07:00:48;;;;;;;;;;;10.10;99.90;;;;;;5014080;28;20426;-49
2022/03/22 07:03:14;;;;;;;;;;;10.20;99.90;;;;;;5014415;28;19926;-48
2022/03/22 07:05:42;;;;;;;;;;;10.40;99.90;;;;;;5014236;28;19929;-52
2022/03/22 07:08:07;;;;;;;;;;;10.50;99.90;;;;;;5014205;28;20013;-48
2022/03/22 07:10:33;;;;;;;;;;;10.70;99.90;;;;;;5014163;28;19926;-48
2022/03/22 07:13:01;;;;;;;;;;;10.90;99.90;;;;;;5014082;28;19925;-52
2022/03/22 07:15:27;;;;;;;;;;;11.00;99.90;;;;;;5014453;28;20375;-52
2022/03/22 07:17:52;;;;;;;;;;;10.80;99.90;;;;;;5013827;28;19983;-48
2022/03/22 07:20:19;;;;;;;;;;;10.60;99.90;;;;;;5013937;28;20060;-48
2022/03/22 07:22:44;;;;;;;;;;;10.50;99.90;;;;;;5014035;28;19993;-47
2022/03/22 07:25:10;;;;;;;;;;;10.30;99.90;;;;;;5013837;28;19926;-48
2022/03/22 07:27:35;;;;;;;;;;;10.30;99.90;;;;;;5013875;28;19925;-49
2022/03/22 07:30:02;;;;;;;;;;;10.30;99.90;;;;;;5013375;28;19932;-48
2022/03/22 07:32:27;;;;;;;;;;;10.30;99.90;;;;;;5013314;28;20035;-47
2022/03/22 07:34:53;;;;;;;;;;;10.40;99.90;;;;;;5013765;28;20407;-48
2022/03/22 07:37:19;;;;;;;;;;;10.50;99.90;;;;;;5013698;28;19930;-48
2022/03/22 07:39:44;;;;;;;;;;;10.50;99.90;;;;;;4996422;28;20300;-47
2022/03/22 07:42:10;;;;;;;;;;;10.40;99.90;;;;;;5013662;28;20446;-48
2022/03/22 07:44:36;;;;;;;;;;;10.40;99.90;;;;;;5013483;28;20293;-50
2022/03/22 07:47:02;;;;;;;;;;;10.50;99.90;;;;;;5013747;28;19925;-48
2022/03/22 07:54:56;;;;;;;;;;;10.80;99.90;;;;;;5013435;28;19921;-48
2022/03/22 07:57:22;;;;;;;;;;;10.80;99.90;;;;;;5013511;28;19933;-50
2022/03/22 07:59:47;;;;;;;;;;;10.90;99.90;;;;;;5013546;28;19930;-47
2022/03/22 08:02:12;;;;;;;;;;;10.90;99.90;;;;;;5013553;28;20347;-49
2022/03/22 08:04:38;;;;;;;;;;;11.00;99.90;;;;;;4979854;28;19929;-49
2022/03/22 08:07:03;;;;;;;;;;;11.20;99.90;;;;;;5013418;28;19968;-50
2022/03/22 08:09:29;;;;;;;;;;;11.30;99.90;;;;;;4995736;28;19932;-49
2022/03/22 08:11:55;;;;;;;;;;;11.40;99.90;;;;;;5013473;28;19930;-49
2022/03/22 08:14:21;;;;;;;;;;;11.50;99.90;;;;;;5013524;28;19929;-50
2022/03/22 08:16:46;;;;;;;;;;;11.60;99.90;;;;;;5013295;28;19926;-48
2022/03/22 08:19:17;;;;;;;;;;;11.70;99.90;;;;;;5013168;28;20418;-48
2022/03/22 08:21:43;;;;;;;;;;;11.90;99.90;;;;;;5013350;28;19929;-48
2022/03/22 08:24:08;;;;;;;;;;;12.10;99.90;;;;;;5013093;28;20300;-50
2022/03/22 08:26:35;;;;;;;;;;;12.10;99.90;;;;;;5013300;28;19933;-51
2022/03/22 08:29:00;;;;;;;;;;;12.20;99.90;;;;;;5013294;28;19925;-49
2022/03/22 08:31:26;;;;;;;;;;;12.20;99.90;;;;;;5012775;28;19921;-49
2022/03/22 08:33:53;;;;;;;;;;;12.30;99.90;;;;;;5012997;28;19926;-50
2022/03/22 08:36:20;;;;;;;;;;;12.40;99.90;;;;;;5013036;28;20399;-49
2022/03/22 08:38:46;;;;;;;;;;;12.60;99.90;;;;;;5012994;28;19925;-48
2022/03/22 08:41:11;;;;;;;;;;;12.70;99.90;;;;;;5013138;28;20036;-48
2022/03/22 08:43:37;;;;;;;;;;;12.90;99.90;;;;;;5016129;28;20063;-49
2022/03/22 08:46:05;;;;;;;;;;;12.90;99.90;;;;;;5016787;28;19925;-48
2022/03/22 08:48:30;;;;;;;;;;;13.20;99.90;;;;;;5016681;28;19933;-49
2022/03/22 08:50:57;;;;;;;;;;;13.20;99.90;;;;;;5016353;28;19929;-51
2022/03/22 08:53:23;;;;;;;;;;;13.30;99.90;;;;;;5016653;28;19925;-49
2022/03/22 08:55:49;;;;;;;;;;;13.40;99.90;;;;;;5016711;28;20008;-47
2022/03/22 08:58:16;;;;;;;;;;;13.50;99.90;;;;;;5016304;28;20290;-49
2022/03/22 09:00:42;;;;;;;;;;;13.60;99.90;;;;;;5016630;28;19980;-49
2022/03/22 09:03:08;;;;;;;;;;;13.80;99.90;;;;;;5016594;28;19925;-48
2022/03/22 09:08:19;;;;;;;;;;;13.90;98.70;;;;;;5016477;28;19980;-49
2022/03/22 09:10:46;;;;;;;;;;;14.10;98.80;;;;;;5016435;28;19930;-48
2022/03/22 09:13:12;;;;;;;;;;;14.20;98.10;;;;;;4998750;28;20340;-49
2022/03/22 09:15:39;;;;;;;;;;;14.30;97.50;;;;;;5016122;28;19987;-48
2022/03/22 09:18:13;;;;;;;;;;;14.40;94.80;;;;;;5016124;28;20372;-48
2022/03/22 09:20:39;;;;;;;;;;;14.50;93.50;;;;;;5016579;28;20016;-49
2022/03/22 09:23:05;;;;;;;;;;;14.60;91.80;;;;;;4998424;28;20478;-51
2022/03/22 09:25:30;;;;;;;;;;;14.70;90.90;;;;;;5016165;28;19976;-52
2022/03/22 09:27:56;;;;;;;;;;;14.80;92.00;;;;;;5015941;28;19925;-49
2022/03/22 09:30:22;;;;;;;;;;;14.90;91.50;;;;;;5016150;28;20016;-49
2022/03/22 09:32:48;;;;;;;;;;;14.90;89.30;;;;;;5015787;28;19926;-50
2022/03/22 09:35:14;;;;;;;;;;;15.00;88.60;;;;;;5015731;28;19930;-50
2022/03/22 09:37:41;;;;;;;;;;;15.00;89.60;;;;;;5015748;28;19926;-48
2022/03/22 09:40:07;;;;;;;;;;;15.20;92.40;;;;;;5015827;28;19925;-50
2022/03/22 09:42:33;;;;;;;;;;;15.20;88.20;;;;;;5015716;28;19968;-49
2022/03/22 09:45:00;;;;;;;;;;;15.40;90.00;;;;;;5015614;28;19932;-51
2022/03/22 09:47:26;;;;;;;;;;;15.40;88.50;;;;;;5015439;28;19925;-49
2022/03/22 09:49:52;;;;;;;;;;;15.60;91.60;;;;;;5015687;28;19957;-49
2022/03/22 09:52:18;;;;;;;;;;;15.70;91.20;;;;;;5015598;28;20012;-51
2022/03/22 09:54:44;;;;;;;;;;;;;;;;;;5014461;28;20298;-49
2022/03/22 09:57:10;;;;;;;;;;;15.90;90.00;;;;;;5015368;28;20084;-49
2022/03/22 09:59:36;;;;;;;;;;;15.90;88.20;;;;;;5015348;28;19926;-49
2022/03/22 10:02:03;;;;;;;;;;;16.10;81.70;;;;;;5015164;28;19932;-48
2022/03/22 10:04:39;;;;;;;;;;;16.10;81.20;;;;;;5015326;28;19926;-49
2022/03/22 10:07:06;;;;;;;;;;;16.20;76.50;;;;;;5015208;28;19925;-49
2022/03/22 10:09:40;;;;;;;;;;;16.20;77.80;;;;;;5015222;28;20012;-53
2022/03/22 10:12:10;;;;;;;;;;;16.20;77.40;;;;;;5015103;28;20380;-52
2022/03/22 10:14:38;;;;;;;;;;;16.40;74.60;;;;;;5015013;28;19930;-48
2022/03/22 10:17:14;;;;;;;;;;;16.60;76.80;;;;;;5014952;28;20422;-49
2022/03/22 10:19:47;;;;;;;;;;;16.70;78.60;;;;;;5014858;28;20296;-51
2022/03/22 10:22:13;;;;;;;;;;;16.80;67.30;;;;;;5014913;28;19925;-50
2022/03/22 10:24:46;;;;;;;;;;;16.80;69.00;;;;;;5014783;28;19933;-52
2022/03/22 10:27:18;;;;;;;;;;;16.90;70.00;;;;;;5014598;28;19925;-52
2022/03/22 10:29:44;;;;;;;;;;;17.00;72.40;;;;;;5014630;28;20292;-52
2022/03/22 10:32:10;;;;;;;;;;;17.10;68.60;;;;;;5014791;28;19925;-48
2022/03/22 10:34:36;;;;;;;;;;;17.20;64.20;;;;;;5014621;28;19925;-50
2022/03/22 10:37:01;;;;;;;;;;;17.20;63.00;;;;;;5014577;28;20020;-53
2022/03/22 10:39:27;;;;;;;;;;;17.30;68.90;;;;;;5014449;28;19956;-49
2022/03/22 10:42:02;;;;;;;;;;;17.40;62.20;;;;;;5014446;28;20273;-48
2022/03/22 10:44:28;;;;;;;;;;;17.30;61.40;;;;;;5014737;28;19933;-49
2022/03/22 10:46:53;;;;;;;;;;;17.40;62.90;;;;;;5014574;28;19973;-52
2022/03/22 10:49:19;;;;;;;;;;;17.40;61.40;;;;;;5014356;28;19965;-48
2022/03/22 10:51:46;;;;;;;;;;;17.40;62.30;;;;;;5014267;28;19925;-49
2022/03/22 10:54:15;;;;;;;;;;;17.50;66.30;;;;;;5014211;28;19926;-53
2022/03/22 10:56:43;;;;;;;;;;;17.60;60.70;;;;;;5014510;28;19925;-51
2022/03/22 10:59:10;;;;;;;;;;;17.40;58.90;;;;;;5014329;28;19973;-49
2022/03/22 11:01:35;;;;;;;;;;;17.50;63.50;;;;;;5014360;28;20387;-51
2022/03/22 11:04:04;;;;;;;;;;;17.60;63.80;;;;;;5014109;28;19933;-49
2022/03/22 11:06:30;;;;;;;;;;;17.80;62.90;;;;;;5014082;28;20307;-51
2022/03/22 11:08:56;;;;;;;;;;;17.90;60.70;;;;;;4996359;28;19932;-53
2022/03/22 11:11:22;;;;;;;;;;;18.00;62.90;;;;;;5014154;28;20367;-52
2022/03/22 11:13:47;;;;;;;;;;;18.00;62.10;;;;;;5013874;28;19925;-53
2022/03/22 11:16:13;;;;;;;;;;;18.00;59.50;;;;;;5014092;28;19933;-53
2022/03/22 11:18:38;;;;;;;;;;;18.10;60.60;;;;;;5013893;28;20368;-52
2022/03/22 11:21:05;;;;;;;;;;;18.10;60.80;;;;;;5013897;28;20387;-50
2022/03/22 11:23:31;;;;;;;;;;;18.20;60.70;;;;;;5013826;28;19925;-49
2022/03/22 11:26:06;;;;;;;;;;;18.20;62.70;;;;;;5014062;28;19968;-50
2022/03/22 11:28:32;;;;;;;;;;;18.30;62.60;;;;;;5013892;28;20008;-48
2022/03/22 11:30:57;;;;;;;;;;;18.40;62.60;;;;;;5013842;28;20378;-53
2022/03/22 11:36:14;;;;;;;;;;;18.60;62.90;;;;;;5013626;28;20384;-52
2022/03/22 11:38:45;;;;;;;;;;;18.60;59.70;;;;;;5013772;28;19931;-50
2022/03/22 11:44:22;;;;;;;;;;;18.60;59.30;;;;;;5013496;28;19933;-49
2022/03/22 11:47:03;;;;;;;;;;;18.60;60.30;;;;;;5013697;28;19929;-52
2022/03/22 11:49:28;;;;;;;;;;;18.70;58.50;;;;;;5013639;28;19925;-49
2022/03/22 11:52:12;;;;;;;;;;;18.80;60.00;;;;;;5013595;28;19932;-49
2022/03/22 11:54:39;;;;;;;;;;;18.90;60.50;;;;;;5013451;28;19926;-48
2022/03/22 11:57:05;;;;;;;;;;;18.80;60.10;;;;;;5013735;28;20036;-48
2022/03/22 11:59:41;;;;;;;;;;;18.80;59.60;;;;;;4995734;28;20391;-49
2022/03/22 12:02:12;;;;;;;;;;;18.80;59.70;;;;;;5013344;28;20376;-50
2022/03/22 12:04:38;;;;;;;;;;;18.90;60.30;;;;;;5013408;28;19926;-49
2022/03/22 12:07:05;;;;;;;;;;;19.10;59.80;;;;;;5013305;28;19926;-49
2022/03/22 12:09:30;;;;;;;;;;;19.00;59.70;;;;;;5013461;28;19932;-48
2022/03/22 12:11:56;;;;;;;;;;;19.00;59.80;;;;;;5013385;28;19925;-50
2022/03/22 12:14:26;;;;;;;;;;;19.20;58.60;;;;;;5013568;28;20380;-52
2022/03/22 12:16:52;;;;;;;;;;;19.30;57.10;;;;;;5014231;28;20020;-50
2022/03/22 12:19:24;;;;;;;;;;;19.40;58.10;;;;;;5017063;28;20008;-50
2022/03/22 12:21:51;;;;;;;;;;;19.40;58.40;;;;;;5017070;28;19925;-49
2022/03/22 12:24:16;;;;;;;;;;;19.40;57.80;;;;;;5017238;28;19925;-51
2022/03/22 12:26:42;;;;;;;;;;;19.40;57.60;;;;;;5017071;28;19936;-53
2022/03/22 12:29:07;;;;;;;;;;;19.50;57.50;;;;;;4999348;28;19926;-49
2022/03/22 12:31:33;;;;;;;;;;;19.50;55.40;;;;;;5017403;28;19947;-50
2022/03/22 12:33:58;;;;;;;;;;;19.60;56.80;;;;;;5016901;28;19980;-48
2022/03/22 12:36:25;;;;;;;;;;;19.60;56.20;;;;;;4999292;28;20015;-49
2022/03/22 12:38:51;;;;;;;;;;;19.70;55.90;;;;;;4999146;28;19925;-51
2022/03/22 12:41:16;;;;;;;;;;;19.60;55.00;;;;;;5016984;28;19932;-51
2022/03/22 12:43:45;;;;;;;;;;;19.60;54.00;;;;;;5016670;28;19952;-50
2022/03/22 12:46:13;;;;;;;;;;;19.60;55.10;;;;;;5017178;28;20035;-50
2022/03/22 12:48:39;;;;;;;;;;;19.60;55.40;;;;;;4999059;28;20379;-50
2022/03/22 12:51:05;;;;;;;;;;;19.60;53.40;;;;;;5016485;28;19936;-50
2022/03/22 12:53:31;;;;;;;;;;;19.60;56.10;;;;;;5016572;28;19925;-49
2022/03/22 12:55:57;;;;;;;;;;;19.60;54.00;;;;;;5016764;28;19926;-50
2022/03/22 12:58:27;;;;;;;;;;;19.60;54.90;;;;;;5016410;28;19984;-49
2022/03/22 13:00:52;;;;;;;;;;;19.50;54.30;;;;;;5016437;28;19936;-50
2022/03/22 13:03:19;;;;;;;;;;;19.60;54.40;;;;;;5016328;28;19925;-50
2022/03/22 13:05:47;;;;;;;;;;;19.60;54.50;;;;;;5016469;28;20016;-49
2022/03/22 13:08:15;;;;;;;;;;;19.60;54.60;;;;;;5016294;28;19926;-50
2022/03/22 13:13:24;;;;;;;;;;;19.80;53.00;;;;;;5016298;28;19932;-48
2022/03/22 13:15:52;;;;;;;;;;;19.90;55.00;;;;;;5016122;28;19926;-48
2022/03/22 13:18:18;;;;;;;;;;;20.00;52.70;;;;;;5016203;28;19930;-49
2022/03/22 13:20:44;;;;;;;;;;;19.90;53.40;;;;;;5016167;28;19926;-48
2022/03/22 13:23:14;;;;;;;;;;;19.90;53.10;;;;;;5016058;28;20008;-50
2022/03/22 13:25:40;;;;;;;;;;;19.90;52.50;;;;;;5016083;28;20315;-53
2022/03/22 13:28:07;;;;;;;;;;;20.00;52.10;;;;;;5015404;28;19926;-49
2022/03/22 13:30:34;;;;;;;;;;;19.90;51.90;;;;;;5015271;28;19931;-48
2022/03/22 13:33:09;;;;;;;;;;;19.90;51.70;;;;;;5015973;28;19952;-49
2022/03/22 13:35:34;;;;;;;;;;;19.80;51.10;;;;;;5016060;28;19980;-48
2022/03/22 13:38:04;;;;;;;;;;;19.90;51.10;;;;;;5015663;28;19973;-50
2022/03/22 13:40:34;;;;;;;;;;;19.80;51.40;;;;;;5016206;28;19929;-52
2022/03/22 13:43:06;;;;;;;;;;;19.90;52.40;;;;;;5015543;28;19926;-49
2022/03/22 13:45:32;;;;;;;;;;;19.80;51.80;;;;;;5015837;28;19983;-49
2022/03/22 13:47:58;;;;;;;;;;;19.80;51.40;;;;;;5015723;28;19925;-50
2022/03/22 13:50:25;;;;;;;;;;;20.00;51.90;;;;;;5015333;28;19989;-48
2022/03/22 13:53:17;;;;;;;;;;;20.00;51.80;;;;;;5015500;28;19932;-53
2022/03/22 13:55:44;;;;;;;;;;;20.00;52.20;;;;;;5012348;28;19926;-50
2022/03/22 13:58:11;;;;;;;;;;;20.20;53.40;;;;;;5015400;28;19948;-49
2022/03/22 14:00:40;;;;;;;;;;;20.30;52.40;;;;;;5015390;28;20076;-49
2022/03/22 14:03:05;;;;;;;;;;;20.40;51.80;;;;;;5015288;28;19953;-49
2022/03/22 14:05:32;;;;;;;;;;;20.40;51.80;;;;;;5015177;28;19926;-49
2022/03/22 14:07:58;;;;;;;;;;;20.50;52.10;;;;;;5015183;28;20446;-52
2022/03/22 14:10:27;;;;;;;;;;;20.50;51.40;;;;;;5015424;28;19925;-49
2022/03/22 14:12:53;;;;;;;;;;;20.40;51.40;;;;;;5015296;28;20012;-49
2022/03/22 14:15:19;;;;;;;;;;;20.40;50.90;;;;;;5015171;28;20000;-49
2022/03/22 14:17:45;;;;;;;;;;;20.40;52.50;;;;;;5015012;28;19976;-49
2022/03/22 14:20:12;;;;;;;;;;;20.40;52.40;;;;;;5015018;28;20410;-53
2022/03/22 14:22:41;;;;;;;;;;;20.50;51.00;;;;;;4997254;28;20307;-51
2022/03/22 14:25:07;;;;;;;;;;;20.50;51.60;;;;;;5015038;28;19947;-52
2022/03/22 14:27:33;;;;;;;;;;;20.40;50.70;;;;;;5014942;28;19936;-51
2022/03/22 14:30:00;;;;;;;;;;;20.40;51.30;;;;;;5014863;28;20376;-48
2022/03/22 14:32:26;;;;;;;;;;;20.50;51.80;;;;;;5015053;28;19925;-51
2022/03/22 14:37:47;;;;;;;;;;;20.40;51.10;;;;;;4973346;28;19937;-48
2022/03/22 14:40:13;;;;;;;;;;;20.50;51.80;;;;;;4973120;28;19957;-51
2022/03/22 14:42:38;;;;;;;;;;;20.20;49.50;;;;;;4957365;28;19930;-55
2022/03/22 14:45:08;;;;;;;;;;;20.10;49.80;;;;;;4973379;28;19965;-54
2022/03/22 14:47:37;;;;;;;;;;;20.10;50.00;;;;;;4957804;28;19926;-50
2022/03/22 14:50:03;;;;;;;;;;;20.20;51.80;;;;;;4973128;28;20008;-52
2022/03/22 14:55:13;;;;;;;;;;;20.20;51.00;;;;;;4973291;28;19945;-49
2022/03/22 15:00:22;;;;;;;;;;;20.10;50.00;;;;;;4973131;28;20463;-49
2022/03/22 15:02:48;;;;;;;;;;;20.00;50.50;;;;;;4973086;28;19930;-49
2022/03/22 15:05:34;;;;;;;;;;;20.10;51.30;;;;;;4972936;28;19973;-50
2022/03/22 15:08:04;;;;;;;;;;;20.10;52.20;;;;;;4972988;28;19926;-50
2022/03/22 15:10:32;;;;;;;;;;;20.10;50.60;;;;;;4973022;28;19926;-51
2022/03/22 15:12:58;;;;;;;;;;;20.00;51.00;;;;;;4973161;28;19926;-50
2022/03/22 15:15:26;;;;;;;;;;;20.00;51.20;;;;;;5014188;28;19925;-51
2022/03/22 15:17:53;;;;;;;;;;;20.10;52.20;;;;;;5013070;28;22259;-50